Time;durP1;ratioP1;P1;durP2;ratioP2;P2;SDS_P1;SDS_P2;PMS_P1;PMS_P2;Temp;Humidity;BMP_temperature;BMP_pressure;BME280_temperature;BME280_humidity;BME280_pressure;Samples;Min_cycle;Max_cycle;Signal;HPM_P1;HPM_P2
2022/05/28 00:01:31;;;;;;;9.18;3.10;;;11.20;99.90;;;;;;4998366;28;93158;-35
2022/05/28 00:03:59;;;;;;;6.05;2.50;;;11.20;99.90;;;;;;4998491;28;94676;-37
2022/05/28 00:06:28;;;;;;;;;;;11.30;99.90;;;;;;4999130;28;94365;-39
2022/05/28 00:08:56;;;;;;;10.48;1.90;;;11.30;99.90;;;;;;5000493;28;94341;-33
2022/05/28 00:11:29;;;;;;;6.43;2.90;;;11.30;99.90;;;;;;4998717;28;92424;-35
2022/05/28 00:13:54;;;;;;;8.40;2.20;;;11.20;99.90;;;;;;4998135;28;95565;-39
2022/05/28 00:16:21;;;;;;;8.45;2.47;;;11.20;99.90;;;;;;4997588;28;95433;-34
2022/05/28 00:18:49;;;;;;;12.27;2.33;;;11.20;99.90;;;;;;4998216;28;92908;-36
2022/05/28 00:21:15;;;;;;;11.15;2.95;;;11.10;99.90;;;;;;4998201;28;92222;-38
2022/05/28 00:23:44;;;;;;;4.07;2.50;;;11.00;99.90;;;;;;4998034;28;94938;-34
2022/05/28 00:26:10;;;;;;;12.88;2.55;;;10.90;99.90;;;;;;4997976;28;95958;-35
2022/05/28 00:28:36;;;;;;;8.55;2.70;;;10.90;99.90;;;;;;4998124;28;93730;-39
2022/05/28 00:31:02;;;;;;;7.10;2.25;;;10.90;99.90;;;;;;4998752;28;93547;-35
2022/05/28 00:33:30;;;;;;;4.82;2.20;;;10.80;99.90;;;;;;4997456;28;94377;-36
2022/05/28 00:35:56;;;;;;;4.30;2.53;;;10.80;99.90;;;;;;4997461;28;94626;-34
2022/05/28 00:38:24;;;;;;;11.25;2.45;;;10.70;99.90;;;;;;4998111;28;93435;-35
2022/05/28 00:40:52;;;;;;;3.05;1.55;;;10.70;99.90;;;;;;4997479;28;94620;-33
2022/05/28 00:43:18;;;;;;;4.82;1.90;;;10.60;99.90;;;;;;4997763;28;94753;-33
2022/05/28 00:45:45;;;;;;;11.82;2.67;;;10.50;99.90;;;;;;4997246;28;93938;-38
2022/05/28 00:48:14;;;;;;;5.50;2.50;;;10.50;99.90;;;;;;4998513;28;92528;-36
2022/05/28 00:50:39;;;;;;;6.65;1.88;;;10.50;99.90;;;;;;5030356;22;99121;-34
2022/05/28 00:53:07;;;;;;;5.97;2.10;;;10.40;99.90;;;;;;4998062;28;93581;-36
2022/05/28 00:55:34;;;;;;;6.32;1.67;;;10.40;99.90;;;;;;4998416;28;94827;-35
2022/05/28 00:58:03;;;;;;;6.72;1.58;;;10.40;99.90;;;;;;4997838;28;93865;-34
2022/05/28 01:00:28;;;;;;;2.80;1.38;;;10.30;99.90;;;;;;4998217;28;92128;-34
2022/05/28 01:03:21;;;;;;;5.63;1.75;;;10.30;99.90;;;;;;4996918;28;95603;-34
2022/05/28 01:06:16;;;;;;;6.32;2.08;;;10.30;99.90;;;;;;4997511;28;95341;-36
2022/05/28 01:09:17;;;;;;;12.48;2.45;;;10.20;99.90;;;;;;4997852;28;94736;-34
2022/05/28 01:11:54;;;;;;;3.95;1.73;;;10.20;99.90;;;;;;4994002;28;92170;-37
2022/05/28 01:14:29;;;;;;;5.07;2.00;;;10.30;99.90;;;;;;4997439;28;95843;-37
2022/05/28 01:17:00;;;;;;;9.38;2.45;;;10.30;99.90;;;;;;4997060;28;94417;-37
2022/05/28 01:19:43;;;;;;;8.15;2.13;;;10.20;99.90;;;;;;4997487;28;93075;-34
2022/05/28 01:22:20;;;;;;;5.38;2.67;;;10.20;99.90;;;;;;4998769;28;92405;-34
2022/05/28 01:24:54;;;;;;;2.95;1.77;;;10.10;99.90;;;;;;4997391;28;95988;-34
2022/05/28 01:27:28;;;;;;;4.20;1.75;;;10.10;99.90;;;;;;4997777;28;95981;-34
2022/05/28 01:29:58;;;;;;;7.07;2.10;;;10.10;99.90;;;;;;4996769;28;93411;-35
2022/05/28 01:32:26;;;;;;;4.97;2.08;;;10.10;99.90;;;;;;4997175;28;92136;-35
2022/05/28 01:34:53;;;;;;;8.00;2.50;;;10.20;99.90;;;;;;4996438;28;95001;-32
2022/05/28 01:37:19;;;;;;;9.40;2.17;;;10.10;99.90;;;;;;4997129;28;94438;-38
2022/05/28 01:39:46;;;;;;;7.97;2.55;;;10.10;99.90;;;;;;4997188;28;93213;-34
2022/05/28 01:42:14;;;;;;;7.03;2.53;;;10.10;99.90;;;;;;4996424;28;94080;-33
2022/05/28 01:44:43;;;;;;;4.45;1.90;;;10.00;99.90;;;;;;4996324;28;94803;-33
2022/05/28 01:47:11;;;;;;;8.57;3.00;;;10.10;99.90;;;;;;4997008;28;94380;-36
2022/05/28 01:49:38;;;;;;;5.63;2.25;;;10.00;99.90;;;;;;4997349;28;92646;-34
2022/05/28 01:52:04;;;;;;;11.50;2.58;;;10.00;99.90;;;;;;4978479;28;92302;-35
2022/05/28 01:54:36;;;;;;;7.03;2.72;;;10.00;99.90;;;;;;4995749;28;96602;-35
2022/05/28 01:57:01;;;;;;;8.63;2.55;;;9.90;99.90;;;;;;4997213;28;96724;-35
2022/05/28 01:59:31;;;;;;;5.20;2.70;;;9.90;99.90;;;;;;4997850;28;93172;-34
2022/05/28 02:01:59;;;;;;;6.55;2.28;;;9.90;99.90;;;;;;4996383;28;94808;-35
2022/05/28 02:04:25;;;;;;;6.93;2.50;;;9.80;99.90;;;;;;4996155;28;95100;-38
2022/05/28 02:06:51;;;;;;;4.70;2.03;;;9.80;99.90;;;;;;4995311;28;95010;-38
2022/05/28 02:09:36;;;;;;;9.43;2.67;;;9.80;99.90;;;;;;4996480;28;93820;-34
2022/05/28 02:12:24;;;;;;;16.00;2.45;;;9.80;99.90;;;;;;4997304;28;92068;-36
2022/05/28 02:15:15;;;;;;;6.40;2.28;;;9.80;99.90;;;;;;4996534;28;95036;-34
2022/05/28 02:17:52;;;;;;;6.43;2.17;;;9.70;99.90;;;;;;4996036;28;95144;-33
2022/05/28 02:20:38;;;;;;;6.57;2.20;;;9.80;99.90;;;;;;4996374;28;94065;-35
2022/05/28 02:23:24;;;;;;;11.25;2.45;;;9.80;99.90;;;;;;4996913;28;93029;-35
2022/05/28 02:26:16;;;;;;;6.82;2.55;;;9.70;99.90;;;;;;4995441;28;94947;-36
2022/05/28 02:28:42;;;;;;;5.57;2.40;;;9.70;99.90;;;;;;4996500;28;94583;-33
2022/05/28 02:31:14;;;;;;;8.88;3.15;;;9.70;99.90;;;;;;4978249;28;93307;-34
2022/05/28 02:33:41;;;;;;;6.88;2.38;;;9.60;99.90;;;;;;4995860;28;92134;-34
2022/05/28 02:36:07;;;;;;;8.32;2.58;;;9.60;99.90;;;;;;4988162;28;94762;-33
2022/05/28 02:38:32;;;;;;;10.35;2.10;;;9.60;99.90;;;;;;4996077;28;94880;-36
2022/05/28 02:40:59;;;;;;;6.22;2.10;;;9.60;99.90;;;;;;4995797;28;93496;-36
2022/05/28 02:43:25;;;;;;;8.45;2.53;;;9.60;99.90;;;;;;4995046;28;93423;-36
2022/05/28 02:45:51;;;;;;;9.00;2.67;;;9.60;99.90;;;;;;4995121;28;95717;-37
2022/05/28 02:48:17;;;;;;;9.20;2.33;;;9.50;99.90;;;;;;4995868;28;95355;-32
2022/05/28 02:50:43;;;;;;;16.23;3.60;;;9.50;99.90;;;;;;4995431;28;93344;-36
2022/05/28 02:53:13;;;;;;;7.38;2.53;;;9.40;99.90;;;;;;4996225;28;93135;-34
2022/05/28 02:55:39;;;;;;;7.85;2.83;;;9.40;99.90;;;;;;4995729;28;95049;-35
2022/05/28 02:58:04;;;;;;;5.10;1.92;;;9.40;99.90;;;;;;4995326;28;94571;-34
2022/05/28 03:00:30;;;;;;;7.25;2.83;;;9.30;99.90;;;;;;4996064;28;93179;-33
2022/05/28 03:02:55;;;;;;;12.07;3.20;;;9.30;99.90;;;;;;4996222;28;94276;-35
2022/05/28 03:05:22;;;;;;;5.82;2.50;;;9.40;99.90;;;;;;4995885;28;93525;-39
2022/05/28 03:07:48;;;;;;;4.93;2.75;;;9.40;99.90;;;;;;4995441;28;95716;-34
2022/05/28 03:10:13;;;;;;;10.77;2.30;;;9.40;99.90;;;;;;4995082;28;94597;-34
2022/05/28 03:12:40;;;;;;;8.38;3.28;;;9.30;99.90;;;;;;4995961;28;93258;-36
2022/05/28 03:15:07;;;;;;;10.48;3.10;;;9.30;99.90;;;;;;4995581;28;94818;-37
2022/05/28 03:17:33;;;;;;;8.25;3.13;;;9.30;99.90;;;;;;4997731;28;94812;-34
2022/05/28 03:20:01;;;;;;;10.50;2.53;;;9.40;99.90;;;;;;4999463;28;93043;-37
2022/05/28 03:22:27;;;;;;;10.70;2.75;;;9.30;99.90;;;;;;4998654;28;92984;-36
2022/05/28 03:24:53;;;;;;;6.15;2.15;;;9.40;99.90;;;;;;4998175;28;94638;-32
2022/05/28 03:27:18;;;;;;;11.90;2.70;;;9.50;99.90;;;;;;4999759;28;95137;-35
2022/05/28 03:29:44;;;;;;;7.05;2.83;;;9.50;99.90;;;;;;4998722;28;92144;-33
2022/05/28 03:32:09;;;;;;;7.47;2.90;;;9.50;99.90;;;;;;4998960;28;94716;-34
2022/05/28 03:34:35;;;;;;;8.45;2.50;;;9.50;99.90;;;;;;4997994;28;96251;-35
2022/05/28 03:37:01;;;;;;;8.25;3.50;;;9.50;99.90;;;;;;4998049;28;95378;-38
2022/05/28 03:39:26;;;;;;;5.57;2.10;;;9.40;99.90;;;;;;4999607;28;92157;-35
2022/05/28 03:41:52;;;;;;;10.45;2.45;;;9.40;99.90;;;;;;4998359;28;94842;-32
2022/05/28 03:44:17;;;;;;;4.88;2.38;;;9.40;99.90;;;;;;4998465;28;94720;-35
2022/05/28 03:46:43;;;;;;;8.50;2.95;;;9.40;99.90;;;;;;4998158;28;93637;-35
2022/05/28 03:49:29;;;;;;;9.43;2.55;;;9.40;99.90;;;;;;4998864;28;93883;-39
2022/05/28 03:51:55;;;;;;;10.07;3.30;;;9.40;99.90;;;;;;4998108;28;91916;-36
2022/05/28 03:54:21;;;;;;;5.07;2.70;;;9.40;99.90;;;;;;4998012;28;94877;-37
2022/05/28 03:56:48;;;;;;;2.65;2.17;;;9.40;99.90;;;;;;4997813;28;95246;-37
2022/05/28 03:59:14;;;;;;;5.63;2.35;;;9.40;99.90;;;;;;4997954;28;93390;-34
2022/05/28 04:01:40;;;;;;;10.75;2.65;;;9.40;99.90;;;;;;4997828;28;94310;-34
2022/05/28 04:04:05;;;;;;;7.85;3.00;;;9.50;99.90;;;;;;4998940;28;94393;-38
2022/05/28 04:06:33;;;;;;;7.20;2.90;;;9.50;99.90;;;;;;4997724;28;94559;-36
2022/05/28 04:09:00;;;;;;;11.18;2.90;;;9.60;99.90;;;;;;4998030;28;94141;-35
2022/05/28 04:11:25;;;;;;;11.50;3.47;;;9.60;99.90;;;;;;4997991;28;92318;-34
2022/05/28 04:13:51;;;;;;;15.80;3.10;;;9.60;99.90;;;;;;4997504;28;95755;-37
2022/05/28 04:16:16;;;;;;;7.60;2.80;;;9.60;99.90;;;;;;4998836;28;94381;-37
2022/05/28 04:18:43;;;;;;;8.80;2.95;;;9.70;99.90;;;;;;4998854;28;93389;-34
2022/05/28 04:21:09;;;;;;;12.38;2.70;;;9.80;99.90;;;;;;4997603;28;94148;-33
2022/05/28 04:23:35;;;;;;;10.38;2.85;;;9.70;99.90;;;;;;4997258;28;94905;-37
2022/05/28 04:26:01;;;;;;;11.23;2.67;;;9.70;99.90;;;;;;4998137;28;95540;-33
2022/05/28 04:28:28;;;;;;;13.82;3.90;;;9.70;99.90;;;;;;4997017;28;95452;-38
2022/05/28 04:30:54;;;;;;;9.20;2.22;;;9.90;99.90;;;;;;4998079;28;93694;-38
2022/05/28 04:33:19;;;;;;;7.20;2.80;;;10.10;99.90;;;;;;4997217;28;94615;-37
2022/05/28 04:35:45;;;;;;;10.00;3.53;;;10.20;99.90;;;;;;4997711;28;94827;-36
2022/05/28 04:38:10;;;;;;;12.40;3.72;;;10.20;99.90;;;;;;4997434;28;93219;-36
2022/05/28 04:40:36;;;;;;;10.35;3.50;;;10.30;99.90;;;;;;4997536;28;93681;-38
2022/05/28 04:43:02;;;;;;;11.02;2.78;;;10.40;99.90;;;;;;4998335;28;94860;-34
2022/05/28 04:45:27;;;;;;;13.20;2.88;;;10.40;99.90;;;;;;4996661;28;94060;-34
2022/05/28 04:47:53;;;;;;;6.88;3.53;;;10.40;99.90;;;;;;4979187;28;95635;-37
2022/05/28 04:50:18;;;;;;;14.35;3.30;;;10.40;99.90;;;;;;4997188;28;94224;-37
2022/05/28 04:52:44;;;;;;;7.53;3.13;;;10.40;99.90;;;;;;4997244;28;94729;-38
2022/05/28 04:55:11;;;;;;;11.60;2.38;;;10.20;99.90;;;;;;4997666;28;94635;-35
2022/05/28 04:57:37;;;;;;;5.95;2.42;;;10.20;99.90;;;;;;4997180;28;93413;-34
2022/05/28 05:00:10;;;;;;;13.40;2.88;;;10.00;99.90;;;;;;4997570;28;92618;-37
2022/05/28 05:02:36;;;;;;;10.60;3.47;;;10.00;99.90;;;;;;4978506;28;97399;-34
2022/05/28 05:05:03;;;;;;;14.25;4.28;;;10.00;99.90;;;;;;4997728;28;94670;-34
2022/05/28 05:07:28;;;;;;;11.85;3.55;;;10.00;99.90;;;;;;4997412;28;94727;-36
2022/05/28 05:09:54;;;;;;;9.88;2.78;;;10.00;99.90;;;;;;4996654;28;93865;-35
2022/05/28 05:12:20;;;;;;;17.63;3.35;;;10.10;99.90;;;;;;4996584;28;98111;-35
2022/05/28 05:14:45;;;;;;;9.40;4.00;;;10.20;99.90;;;;;;4996289;28;95424;-33
2022/05/28 05:17:11;;;;;;;14.35;3.15;;;10.50;99.90;;;;;;4998357;28;94191;-36
2022/05/28 05:19:36;;;;;;;8.50;3.70;;;10.90;99.90;;;;;;4997108;28;93122;-36
2022/05/28 05:22:02;;;;;;;4.80;2.50;;;11.00;99.90;;;;;;4996894;28;94601;-35
2022/05/28 05:24:28;;;;;;;14.20;3.47;;;11.00;99.90;;;;;;4997139;28;94869;-35
2022/05/28 05:26:53;;;;;;;10.32;3.55;;;10.90;99.90;;;;;;4996740;28;94323;-35
2022/05/28 05:29:19;;;;;;;12.15;3.47;;;10.90;99.90;;;;;;4998065;28;92585;-33
2022/05/28 05:31:45;;;;;;;15.23;3.53;;;11.00;99.90;;;;;;4997167;28;94804;-35
2022/05/28 05:34:10;;;;;;;19.52;2.83;;;10.90;99.90;;;;;;4996831;28;94962;-37
2022/05/28 05:36:36;;;;;;;7.05;3.22;;;10.90;99.90;;;;;;4996627;28;93943;-35
2022/05/28 05:39:03;;;;;;;15.43;3.78;;;10.90;99.90;;;;;;4996560;28;94855;-39
2022/05/28 05:41:28;;;;;;;10.00;2.53;;;11.10;99.90;;;;;;4997015;28;94721;-38
2022/05/28 05:43:54;;;;;;;20.05;4.75;;;11.30;99.90;;;;;;4995443;28;94671;-34
2022/05/28 05:46:19;;;;;;;9.13;3.90;;;11.40;99.90;;;;;;4999629;28;94256;-35
2022/05/28 05:48:45;;;;;;;8.65;3.05;;;11.40;99.90;;;;;;4995893;28;92449;-35
2022/05/28 05:51:14;;;;;;;12.98;3.63;;;11.40;99.90;;;;;;4996383;28;94762;-35
2022/05/28 05:53:39;;;;;;;;;;;11.30;99.90;;;;;;4997125;28;93927;-35
2022/05/28 05:56:05;;;;;;;6.25;3.05;;;11.50;99.90;;;;;;4998176;28;92887;-35
2022/05/28 05:58:34;;;;;;;14.50;3.72;;;11.50;99.90;;;;;;4996196;28;94671;-40
2022/05/28 06:01:01;;;;;;;;;;;11.70;99.90;;;;;;4996313;28;96124;-39
2022/05/28 06:03:26;;;;;;;15.48;3.90;;;11.90;99.90;;;;;;4998291;28;94577;-34
2022/05/28 06:05:59;;;;;;;10.68;4.18;;;12.10;99.90;;;;;;4995878;28;93810;-34
2022/05/28 06:08:25;;;;;;;10.40;3.85;;;12.00;99.90;;;;;;4997094;28;94505;-33
2022/05/28 06:10:51;;;;;;;13.30;3.60;;;12.30;99.90;;;;;;4995344;28;94730;-37
2022/05/28 06:13:17;;;;;;;6.95;3.40;;;12.50;99.90;;;;;;4996932;28;94490;-35
2022/05/28 06:15:43;;;;;;;13.55;4.88;;;12.90;99.90;;;;;;4995786;28;94198;-38
2022/05/28 06:18:09;;;;;;;17.42;4.20;;;12.90;99.90;;;;;;4996201;28;93493;-34
2022/05/28 06:20:34;;;;;;;13.13;4.38;;;13.40;99.90;;;;;;4996078;28;96283;-38
2022/05/28 06:23:01;;;;;;;12.63;4.28;;;13.50;99.90;;;;;;4995822;28;93218;-34
2022/05/28 06:25:27;;;;;;;12.52;4.63;;;13.50;99.90;;;;;;4996657;28;93546;-34
2022/05/28 06:27:53;;;;;;;11.38;3.50;;;13.70;99.90;;;;;;4995730;28;93964;-33
2022/05/28 06:30:19;;;;;;;8.07;3.13;;;14.00;99.90;;;;;;4995472;28;94974;-36
2022/05/28 06:32:44;;;;;;;13.57;3.88;;;14.50;99.90;;;;;;4995836;28;94426;-35
2022/05/28 06:35:10;;;;;;;8.23;3.33;;;14.20;99.90;;;;;;4996490;28;92369;-34
2022/05/28 06:37:36;;;;;;;9.38;3.78;;;14.20;99.90;;;;;;4995926;28;93773;-35
2022/05/28 06:40:03;;;;;;;10.65;3.67;;;14.10;99.90;;;;;;4995813;28;94848;-34
2022/05/28 06:42:29;;;;;;;8.02;2.63;;;14.20;99.90;;;;;;4995656;28;94931;-35
2022/05/28 06:44:55;;;;;;;11.80;4.22;;;13.80;99.90;;;;;;4996535;28;92445;-34
2022/05/28 06:47:21;;;;;;;11.48;3.35;;;14.00;99.90;;;;;;4978527;28;92219;-34
2022/05/28 06:51:01;;;;;;;8.70;3.70;;;14.30;99.90;;;;;;4995175;28;95849;-37
2022/05/28 06:52:32;;;;;;;13.07;3.30;;;14.30;99.90;;;;;;4998452;28;95582;-36
2022/05/28 06:54:58;;;;;;;7.32;2.95;;;13.90;99.90;;;;;;4998782;28;92331;-34
2022/05/28 06:57:24;;;;;;;8.35;3.58;;;13.80;99.90;;;;;;4999222;28;94415;-35
2022/05/28 06:59:49;;;;;;;9.10;3.92;;;13.70;99.90;;;;;;4999275;28;94767;-34
2022/05/28 07:02:15;;;;;;;9.20;2.63;;;13.90;99.90;;;;;;4998736;28;96429;-34
2022/05/28 07:04:40;;;;;;;10.25;2.67;;;13.80;99.90;;;;;;4999257;28;93258;-33
2022/05/28 07:07:06;;;;;;;11.43;4.13;;;13.40;99.90;;;;;;4998897;28;94905;-35
2022/05/28 07:09:31;;;;;;;11.82;3.88;;;13.10;99.90;;;;;;4999166;28;94945;-36
2022/05/28 07:11:57;;;;;;;9.25;2.95;;;12.60;99.90;;;;;;4998675;28;94614;-35
2022/05/28 07:14:22;;;;;;;8.63;3.20;;;12.50;99.90;;;;;;4999067;28;93424;-34
2022/05/28 07:16:48;;;;;;;17.75;3.88;;;12.10;99.90;;;;;;4998627;28;92964;-34
2022/05/28 07:19:13;;;;;;;10.05;3.00;;;12.20;99.90;;;;;;4999112;28;96715;-34
2022/05/28 07:21:39;;;;;;;12.52;3.55;;;12.80;99.90;;;;;;4997046;28;98187;-35
2022/05/28 07:24:05;;;;;;;8.68;2.90;;;13.00;99.90;;;;;;4998984;28;93583;-36
2022/05/28 07:26:30;;;;;;;10.35;3.22;;;13.30;99.90;;;;;;4998561;28;93010;-36
2022/05/28 07:28:56;;;;;;;2.47;2.17;;;14.00;99.90;;;;;;4998246;28;94924;-36
2022/05/28 07:31:22;;;;;;;10.52;2.50;;;13.90;99.90;;;;;;4998846;28;94584;-35
2022/05/28 07:33:48;;;;;;;6.75;2.45;;;13.40;99.90;;;;;;4933653;28;93945;-35
2022/05/28 07:36:20;;;;;;;8.02;2.53;;;13.70;99.90;;;;;;4995420;28;93889;-35
2022/05/28 07:38:46;;;;;;;7.80;2.78;;;13.50;99.90;;;;;;4997567;28;96120;-33
2022/05/28 07:41:20;;;;;;;9.60;3.00;;;13.30;99.90;;;;;;4998387;28;95795;-37
2022/05/28 07:43:47;;;;;;;6.30;2.95;;;13.20;99.90;;;;;;4997398;28;94479;-35
2022/05/28 07:46:28;;;;;;;7.37;2.77;;;13.00;99.90;;;;;;4998073;28;93367;-35
2022/05/28 07:48:55;;;;;;;6.07;2.63;;;12.90;99.90;;;;;;4997891;28;94038;-34
2022/05/28 07:51:21;;;;;;;7.75;2.58;;;13.00;99.90;;;;;;4997768;28;93217;-36
2022/05/28 07:53:46;;;;;;;5.68;3.45;;;13.20;99.90;;;;;;4999307;28;94788;-34
2022/05/28 07:56:13;;;;;;;9.23;2.55;;;13.20;99.90;;;;;;4998483;28;93850;-34
2022/05/28 07:58:39;;;;;;;7.30;2.20;;;13.70;99.90;;;;;;4998130;28;94764;-35
2022/05/28 08:01:06;;;;;;;5.60;1.83;;;13.50;99.90;;;;;;4997938;28;96707;-35
2022/05/28 08:03:33;;;;;;;7.05;2.30;;;14.10;99.90;;;;;;4996790;28;95009;-35
2022/05/28 08:05:59;;;;;;;6.30;2.53;;;14.20;99.90;;;;;;4994147;28;93476;-37
2022/05/28 08:08:26;;;;;;;7.03;2.90;;;14.30;99.90;;;;;;4996661;28;94537;-34
2022/05/28 08:10:52;;;;;;;7.28;3.10;;;14.40;99.90;;;;;;4996466;28;95041;-37
2022/05/28 08:13:20;;;;;;;9.23;3.03;;;14.10;99.90;;;;;;4999799;28;92254;-37
2022/05/28 08:15:47;;;;;;;9.38;3.45;;;14.00;99.90;;;;;;5001364;28;93321;-34
2022/05/28 08:18:15;;;;;;;8.73;3.58;;;14.00;99.90;;;;;;5004260;28;94661;-34
2022/05/28 08:23:33;;;;;;;10.68;2.80;;;14.50;99.90;;;;;;4994096;28;93509;-37
2022/05/28 08:25:59;;;;;;;6.63;2.95;;;15.20;99.90;;;;;;4998263;28;92182;-34
2022/05/28 08:28:25;;;;;;;13.85;3.90;;;15.20;99.90;;;;;;4996548;28;95715;-39
2022/05/28 08:30:50;;;;;;;13.65;4.55;;;15.10;99.90;;;;;;4994976;28;95335;-35
2022/05/28 08:33:17;;;;;;;14.60;3.67;;;15.50;99.90;;;;;;4997911;28;94720;-38
2022/05/28 08:35:44;;;;;;;15.50;3.05;;;15.80;99.90;;;;;;4997278;28;93895;-38
2022/05/28 08:38:15;;;;;;;15.95;3.80;;;14.90;99.90;;;;;;4996009;28;95231;-34
2022/05/28 08:41:05;;;;;;;8.98;3.65;;;14.50;99.90;;;;;;4997674;28;94624;-34
2022/05/28 08:43:33;;;;;;;17.83;4.53;;;13.90;99.90;;;;;;4997828;28;92625;-34
2022/05/28 08:45:59;;;;;;;14.93;3.97;;;14.00;99.90;;;;;;4998111;28;93537;-35
2022/05/28 08:48:35;;;;;;;14.25;3.67;;;14.30;99.90;;;;;;4997550;28;94779;-34
2022/05/28 08:51:05;;;;;;;11.15;3.55;;;14.60;99.90;;;;;;4996875;28;94485;-37
2022/05/28 08:53:38;;;;;;;15.80;4.30;;;14.70;99.90;;;;;;4997533;28;93612;-36
2022/05/28 08:56:05;;;;;;;10.85;3.78;;;15.30;99.90;;;;;;4997079;28;92868;-34
2022/05/28 08:58:33;;;;;;;15.55;3.92;;;15.30;99.90;;;;;;4997659;28;94790;-35
2022/05/28 09:00:59;;;;;;;;;;;15.30;99.90;;;;;;4997615;28;94468;-36
2022/05/28 09:03:59;;;;;;;11.88;3.85;;;15.30;99.90;;;;;;4999570;28;92957;-33
2022/05/28 09:06:41;;;;;;;14.23;3.78;;;14.90;99.90;;;;;;4997371;28;94354;-34
2022/05/28 09:09:09;;;;;;;9.27;3.80;;;14.60;99.90;;;;;;4997582;28;94963;-33
2022/05/28 09:12:01;;;;;;;9.93;3.42;;;14.30;99.90;;;;;;4996997;28;94556;-37
2022/05/28 09:14:29;;;;;;;9.23;3.03;;;14.00;99.90;;;;;;4997192;28;93919;-37
2022/05/28 09:16:59;;;;;;;9.02;3.42;;;13.80;99.90;;;;;;4996153;28;92781;-35
2022/05/28 09:19:30;;;;;;;13.13;3.97;;;14.20;99.90;;;;;;4996974;28;96234;-35
2022/05/28 09:21:56;;;;;;;15.10;3.67;;;14.20;99.90;;;;;;4996417;28;95911;-35
2022/05/28 09:24:24;;;;;;;10.48;4.85;;;14.90;99.90;;;;;;4997973;28;92119;-34
2022/05/28 09:26:56;;;;;;;14.43;4.63;;;15.10;99.90;;;;;;4997196;28;92914;-35
2022/05/28 09:29:44;;;;;;;8.13;3.80;;;15.20;99.90;;;;;;4996716;28;94743;-34
2022/05/28 09:32:09;;;;;;;;;;;14.90;99.90;;;;;;4997340;28;94452;-38
2022/05/28 09:35:01;;;;;;;13.25;3.60;;;14.60;99.90;;;;;;4998379;28;94297;-38
2022/05/28 09:37:53;;;;;;;12.90;3.88;;;14.40;99.90;;;;;;4997501;28;92391;-39
2022/05/28 09:40:46;;;;;;;14.60;3.95;;;14.40;99.90;;;;;;4996313;28;95172;-36
2022/05/28 09:43:43;;;;;;;15.75;4.45;;;14.90;99.90;;;;;;4996880;28;94968;-37
2022/05/28 09:46:20;;;;;;;13.30;4.15;;;15.60;99.90;;;;;;4996671;28;93825;-34
2022/05/28 09:49:01;;;;;;;7.70;3.78;;;15.60;99.90;;;;;;4996820;28;93906;-36
2022/05/28 09:51:30;;;;;;;12.57;3.78;;;15.90;99.90;;;;;;4995840;28;94784;-35
2022/05/28 09:54:16;;;;;;;9.27;3.88;;;15.80;99.90;;;;;;4996800;28;94681;-34
2022/05/28 09:56:45;;;;;;;6.22;3.25;;;15.40;99.90;;;;;;4996706;28;93080;-34
2022/05/28 09:59:27;;;;;;;6.47;2.88;;;15.10;99.90;;;;;;4996448;28;92229;-36
2022/05/28 10:02:01;;;;;;;6.78;2.72;;;15.00;99.90;;;;;;4996998;28;95110;-33
2022/05/28 10:04:30;;;;;;;7.00;3.08;;;15.00;99.90;;;;;;4996665;28;94193;-34
2022/05/28 10:07:05;;;;;;;8.02;3.05;;;14.90;99.90;;;;;;4996832;28;93130;-37
2022/05/28 10:09:33;;;;;;;7.43;2.50;;;14.60;99.90;;;;;;4997006;28;93947;-34
2022/05/28 10:12:13;;;;;;;6.13;2.72;;;14.70;99.90;;;;;;4995038;28;95823;-35
2022/05/28 10:14:38;;;;;;;14.00;3.42;;;14.60;99.90;;;;;;4996905;28;95295;-35
2022/05/28 10:17:04;;;;;;;13.57;2.88;;;15.30;99.90;;;;;;4996303;28;93369;-36
2022/05/28 10:19:42;;;;;;;13.38;2.83;;;15.60;99.90;;;;;;4996794;28;94291;-35
2022/05/28 10:22:15;;;;;;;11.50;2.60;;;15.50;99.90;;;;;;4996013;28;95033;-38
2022/05/28 10:24:50;;;;;;;10.27;3.15;;;15.90;99.90;;;;;;4996098;28;94624;-36
2022/05/28 10:27:24;;;;;;;5.00;3.13;;;15.80;99.90;;;;;;4998943;28;92924;-36
2022/05/28 10:29:51;;;;;;;4.68;2.13;;;15.80;99.90;;;;;;5000246;28;94070;-35
2022/05/28 10:32:41;;;;;;;6.93;2.58;;;16.10;99.90;;;;;;4999667;28;94872;-38
2022/05/28 10:35:19;;;;;;;9.05;3.10;;;16.60;99.90;;;;;;4999886;28;94856;-37
2022/05/28 10:37:44;;;;;;;12.00;2.50;;;16.20;99.90;;;;;;4999767;28;95677;-34
2022/05/28 10:40:20;;;;;;;5.38;2.53;;;16.00;99.90;;;;;;4999867;28;94225;-35
2022/05/28 10:42:47;;;;;;;7.40;2.30;;;15.40;99.90;;;;;;4999150;28;94703;-32
2022/05/28 10:45:16;;;;;;;5.70;2.70;;;15.10;99.90;;;;;;4999884;28;94623;-36
2022/05/28 10:47:51;;;;;;;6.78;2.97;;;14.70;99.90;;;;;;4999463;28;94114;-36
2022/05/28 10:50:32;;;;;;;8.20;2.97;;;14.60;99.90;;;;;;4999592;28;92167;-34
2022/05/28 10:53:11;;;;;;;11.80;3.95;;;14.20;99.90;;;;;;4999000;28;94867;-34
2022/05/28 10:55:58;;;;;;;8.60;4.45;;;13.90;99.90;;;;;;4999112;28;93840;-34
2022/05/28 10:59:00;;;;;;;5.67;2.50;;;14.10;99.90;;;;;;4999031;28;94073;-34
2022/05/28 11:01:56;;;;;;;10.07;3.05;;;14.80;99.90;;;;;;4999276;28;93352;-35
2022/05/28 11:04:52;;;;;;;11.60;3.45;;;15.20;99.90;;;;;;4999234;28;95660;-35
2022/05/28 11:07:20;;;;;;;12.93;3.75;;;15.40;99.90;;;;;;4976740;28;96695;-35
2022/05/28 11:10:11;;;;;;;8.32;3.55;;;15.30;99.90;;;;;;4995698;28;93145;-36
2022/05/28 11:12:48;;;;;;;9.32;2.83;;;15.00;99.90;;;;;;4999571;28;93405;-34
2022/05/28 11:15:17;;;;;;;11.02;2.90;;;15.00;99.90;;;;;;4998694;28;94955;-34
2022/05/28 11:18:27;;;;;;;7.57;3.17;;;15.30;99.90;;;;;;4998581;28;94576;-34
2022/05/28 11:21:31;;;;;;;7.15;2.92;;;15.20;99.90;;;;;;4976933;28;92702;-34
2022/05/28 11:24:02;;;;;;;14.32;3.67;;;15.40;99.90;;;;;;4986340;28;92248;-37
2022/05/28 11:26:46;;;;;;;5.15;2.88;;;15.50;99.90;;;;;;4998921;28;94700;-36
2022/05/28 11:29:26;;;;;;;8.00;3.10;;;15.60;99.90;;;;;;4999235;28;94563;-39
2022/05/28 11:32:00;;;;;;;11.65;3.15;;;15.50;99.90;;;;;;4998190;28;95789;-39
2022/05/28 11:34:55;;;;;;;6.97;2.45;;;15.80;99.90;;;;;;4999334;28;92945;-35
2022/05/28 11:37:56;;;;;;;6.50;2.65;;;15.50;99.90;;;;;;4998290;28;95048;-36
2022/05/28 11:40:32;;;;;;;5.32;2.33;;;15.30;99.90;;;;;;4975971;28;94506;-34
2022/05/28 11:43:12;;;;;;;7.10;2.33;;;15.10;96.60;;;;;;4987967;28;94512;-34
2022/05/28 11:46:00;;;;;;;5.22;2.22;;;15.00;99.90;;;;;;4998428;28;93313;-33
2022/05/28 11:51:43;;;;;;;6.35;2.08;;;15.00;99.90;;;;;;4987800;28;94219;-35
2022/05/28 11:54:35;;;;;;;3.38;2.03;;;14.80;99.90;;;;;;4999471;28;92983;-34
2022/05/28 11:57:08;;;;;;;10.20;2.58;;;14.70;99.90;;;;;;4998703;28;92613;-33
2022/05/28 11:59:36;;;;;;;8.05;1.80;;;14.70;99.90;;;;;;4998257;28;95767;-34
2022/05/28 12:02:13;;;;;;;5.95;3.03;;;14.90;99.90;;;;;;4997558;28;95008;-35
2022/05/28 12:04:41;;;;;;;9.55;2.45;;;15.40;99.90;;;;;;4998370;28;93287;-33
2022/05/28 12:07:26;;;;;;;5.30;2.42;;;15.80;94.80;;;;;;4997730;28;94049;-36
2022/05/28 12:09:52;;;;;;;6.22;2.15;;;15.80;98.90;;;;;;4998206;28;95440;-35
2022/05/28 12:12:49;;;;;;;4.80;1.95;;;15.50;94.60;;;;;;4998580;28;94539;-33
2022/05/28 12:15:14;;;;;;;5.07;2.20;;;15.20;99.90;;;;;;4997511;28;93141;-34
2022/05/28 12:17:40;;;;;;;5.90;2.42;;;14.80;99.90;;;;;;4995778;28;92557;-34
2022/05/28 12:20:11;;;;;;;5.07;1.85;;;14.70;99.90;;;;;;4995762;28;94516;-34
2022/05/28 12:22:55;;;;;;;7.25;2.85;;;15.20;99.90;;;;;;4997086;28;94815;-35
2022/05/28 12:25:21;;;;;;;7.53;2.83;;;15.40;99.90;;;;;;4996471;28;94424;-35
2022/05/28 12:28:11;;;;;;;6.47;2.92;;;15.50;99.90;;;;;;4997529;28;92934;-34
2022/05/28 12:30:41;;;;;;;11.50;3.05;;;15.40;99.90;;;;;;4997322;28;94631;-38
2022/05/28 12:33:25;;;;;;;6.50;2.95;;;15.10;99.90;;;;;;4997242;28;94542;-35
2022/05/28 12:36:41;;;;;;;8.85;3.60;;;14.80;99.90;;;;;;4998147;28;94322;-36
2022/05/28 12:39:12;;;;;;;10.40;3.83;;;14.10;99.90;;;;;;4994731;28;93358;-36
2022/05/28 12:41:39;;;;;;;9.43;2.63;;;13.70;99.90;;;;;;4994479;28;94819;-38
2022/05/28 12:44:20;;;;;;;8.98;2.80;;;13.30;99.90;;;;;;4995343;28;94632;-36
2022/05/28 12:46:49;;;;;;;8.30;2.30;;;13.00;99.90;;;;;;4997986;28;94458;-34
2022/05/28 12:49:23;;;;;;;7.45;3.72;;;12.90;99.90;;;;;;4997276;28;93263;-34
2022/05/28 12:52:06;;;;;;;7.40;2.45;;;13.10;99.90;;;;;;5030172;22;95865;-36
2022/05/28 12:54:34;;;;;;;7.10;3.05;;;13.10;99.90;;;;;;4997371;28;95288;-33
2022/05/28 12:57:11;;;;;;;8.02;3.40;;;13.30;99.90;;;;;;4997958;28;94201;-35
2022/05/28 12:59:41;;;;;;;9.30;3.65;;;13.70;99.90;;;;;;4997437;28;94416;-34
2022/05/28 13:02:16;;;;;;;6.70;2.55;;;14.20;99.90;;;;;;4997669;28;94814;-36
2022/05/28 13:04:47;;;;;;;7.43;2.15;;;14.40;99.90;;;;;;4997088;28;95940;-35
2022/05/28 13:07:22;;;;;;;8.82;3.42;;;14.70;99.90;;;;;;4995912;28;93084;-35
2022/05/28 13:09:53;;;;;;;7.72;2.80;;;14.60;99.90;;;;;;4997482;28;92807;-34
2022/05/28 13:12:29;;;;;;;5.90;2.65;;;14.60;99.90;;;;;;4997969;28;94650;-35